sensor_id;sensor_type;location;lat;lon;timestamp;temperature;humidity
34574;DHT22;20809;49.594;8.734;2023-08-30T00:02:53;12.60;99.90
34574;DHT22;20809;49.594;8.734;2023-08-30T00:05:53;12.60;99.90
34574;DHT22;20809;49.594;8.734;2023-08-30T00:08:55;12.60;99.90
34574;DHT22;20809;49.594;8.734;2023-08-30T00:11:57;12.60;99.90
34574;DHT22;20809;49.594;8.734;2023-08-30T00:14:58;12.60;99.90
34574;DHT22;20809;49.594;8.734;2023-08-30T00:17:59;12.60;99.90
34574;DHT22;20809;49.594;8.734;2023-08-30T00:21:00;12.70;99.90
34574;DHT22;20809;49.594;8.734;2023-08-30T00:24:00;12.70;99.90
34574;DHT22;20809;49.594;8.734;2023-08-30T00:27:02;12.70;99.90
34574;DHT22;20809;49.594;8.734;2023-08-30T00:30:02;12.70;99.90
34574;DHT22;20809;49.594;8.734;2023-08-30T00:33:04;12.70;99.90
34574;DHT22;20809;49.594;8.734;2023-08-30T00:36:05;12.70;99.90
34574;DHT22;20809;49.594;8.734;2023-08-30T00:39:06;12.60;99.90
34574;DHT22;20809;49.594;8.734;2023-08-30T00:42:10;12.60;99.90
34574;DHT22;20809;49.594;8.734;2023-08-30T00:45:11;12.70;99.90
34574;DHT22;20809;49.594;8.734;2023-08-30T00:48:14;12.80;99.90
34574;DHT22;20809;49.594;8.734;2023-08-30T00:51:17;12.80;99.90
34574;DHT22;20809;49.594;8.734;2023-08-30T00:54:18;12.90;99.90
34574;DHT22;20809;49.594;8.734;2023-08-30T00:59:09;12.90;99.90
34574;DHT22;20809;49.594;8.734;2023-08-30T01:02:12;12.90;99.90
34574;DHT22;20809;49.594;8.734;2023-08-30T01:05:14;12.90;99.90
34574;DHT22;20809;49.594;8.734;2023-08-30T01:08:16;13.00;99.90
34574;DHT22;20809;49.594;8.734;2023-08-30T01:11:39;13.00;99.90
34574;DHT22;20809;49.594;8.734;2023-08-30T01:15:11;13.00;99.90
34574;DHT22;20809;49.594;8.734;2023-08-30T01:18:18;13.00;99.90
34574;DHT22;20809;49.594;8.734;2023-08-30T01:21:40;13.00;99.90
34574;DHT22;20809;49.594;8.734;2023-08-30T01:25:27;13.00;99.90
34574;DHT22;20809;49.594;8.734;2023-08-30T01:28:36;13.00;99.90
34574;DHT22;20809;49.594;8.734;2023-08-30T01:31:38;12.90;99.90
34574;DHT22;20809;49.594;8.734;2023-08-30T01:34:44;12.90;99.90
34574;DHT22;20809;49.594;8.734;2023-08-30T01:37:49;12.90;99.90
34574;DHT22;20809;49.594;8.734;2023-08-30T01:40:52;12.90;99.90
34574;DHT22;20809;49.594;8.734;2023-08-30T01:43:55;12.90;99.90
34574;DHT22;20809;49.594;8.734;2023-08-30T01:47:01;12.90;99.90
34574;DHT22;20809;49.594;8.734;2023-08-30T01:50:04;13.00;99.90
34574;DHT22;20809;49.594;8.734;2023-08-30T01:53:07;12.90;99.90
34574;DHT22;20809;49.594;8.734;2023-08-30T01:56:10;13.00;99.90
34574;DHT22;20809;49.594;8.734;2023-08-30T01:59:12;13.00;99.90
34574;DHT22;20809;49.594;8.734;2023-08-30T02:02:14;13.00;99.90
34574;DHT22;20809;49.594;8.734;2023-08-30T02:05:16;13.00;99.90
34574;DHT22;20809;49.594;8.734;2023-08-30T02:08:19;13.00;99.90
34574;DHT22;20809;49.594;8.734;2023-08-30T02:11:26;13.00;99.90
34574;DHT22;20809;49.594;8.734;2023-08-30T02:14:29;12.90;99.90
34574;DHT22;20809;49.594;8.734;2023-08-30T02:17:32;12.90;99.90
34574;DHT22;20809;49.594;8.734;2023-08-30T02:20:35;13.00;99.90
34574;DHT22;20809;49.594;8.734;2023-08-30T02:23:38;13.00;99.90
34574;DHT22;20809;49.594;8.734;2023-08-30T02:26:40;13.00;99.90
34574;DHT22;20809;49.594;8.734;2023-08-30T02:29:42;13.00;99.90
34574;DHT22;20809;49.594;8.734;2023-08-30T02:32:44;13.00;99.90
34574;DHT22;20809;49.594;8.734;2023-08-30T02:35:46;13.00;99.90
34574;DHT22;20809;49.594;8.734;2023-08-30T02:38:49;13.00;99.90
34574;DHT22;20809;49.594;8.734;2023-08-30T02:41:51;13.00;99.90
34574;DHT22;20809;49.594;8.734;2023-08-30T02:44:53;13.00;99.90
34574;DHT22;20809;49.594;8.734;2023-08-30T02:47:58;13.00;99.90
34574;DHT22;20809;49.594;8.734;2023-08-30T02:51:00;12.90;99.90
34574;DHT22;20809;49.594;8.734;2023-08-30T02:54:02;12.90;99.90
34574;DHT22;20809;49.594;8.734;2023-08-30T02:57:04;12.90;99.90
34574;DHT22;20809;49.594;8.734;2023-08-30T03:00:07;12.90;99.90
34574;DHT22;20809;49.594;8.734;2023-08-30T03:03:10;13.00;99.90
34574;DHT22;20809;49.594;8.734;2023-08-30T03:06:12;13.00;99.90
34574;DHT22;20809;49.594;8.734;2023-08-30T03:09:15;13.10;99.90
34574;DHT22;20809;49.594;8.734;2023-08-30T03:12:18;13.10;99.90
34574;DHT22;20809;49.594;8.734;2023-08-30T03:15:20;13.10;99.90
34574;DHT22;20809;49.594;8.734;2023-08-30T03:18:22;13.20;99.90
34574;DHT22;20809;49.594;8.734;2023-08-30T03:21:24;13.20;99.90
34574;DHT22;20809;49.594;8.734;2023-08-30T03:24:26;13.20;99.90
34574;DHT22;20809;49.594;8.734;2023-08-30T03:27:29;13.20;99.90
34574;DHT22;20809;49.594;8.734;2023-08-30T03:30:31;13.20;99.90
34574;DHT22;20809;49.594;8.734;2023-08-30T03:33:33;13.20;99.90
34574;DHT22;20809;49.594;8.734;2023-08-30T03:36:36;13.20;99.90
34574;DHT22;20809;49.594;8.734;2023-08-30T03:39:38;13.20;99.90
34574;DHT22;20809;49.594;8.734;2023-08-30T03:42:40;13.20;99.90
34574;DHT22;20809;49.594;8.734;2023-08-30T03:45:42;13.30;99.90
34574;DHT22;20809;49.594;8.734;2023-08-30T03:48:45;13.30;99.90
34574;DHT22;20809;49.594;8.734;2023-08-30T03:51:48;13.20;99.90
34574;DHT22;20809;49.594;8.734;2023-08-30T03:54:50;13.20;99.90
34574;DHT22;20809;49.594;8.734;2023-08-30T03:57:52;13.20;99.90
34574;DHT22;20809;49.594;8.734;2023-08-30T04:00:54;13.20;99.90
34574;DHT22;20809;49.594;8.734;2023-08-30T04:03:56;13.20;99.90
34574;DHT22;20809;49.594;8.734;2023-08-30T04:06:58;13.20;99.90
34574;DHT22;20809;49.594;8.734;2023-08-30T04:10:00;13.20;99.90
34574;DHT22;20809;49.594;8.734;2023-08-30T04:13:04;13.20;99.90
34574;DHT22;20809;49.594;8.734;2023-08-30T04:16:07;13.10;99.90
34574;DHT22;20809;49.594;8.734;2023-08-30T04:19:09;13.10;99.90
34574;DHT22;20809;49.594;8.734;2023-08-30T04:22:11;13.20;99.90
34574;DHT22;20809;49.594;8.734;2023-08-30T04:25:13;13.10;99.90
34574;DHT22;20809;49.594;8.734;2023-08-30T04:28:15;13.10;99.90
34574;DHT22;20809;49.594;8.734;2023-08-30T04:31:20;13.10;99.90
34574;DHT22;20809;49.594;8.734;2023-08-30T04:34:23;13.10;99.90
34574;DHT22;20809;49.594;8.734;2023-08-30T04:37:29;13.10;99.90
34574;DHT22;20809;49.594;8.734;2023-08-30T04:40:33;13.00;99.90
34574;DHT22;20809;49.594;8.734;2023-08-30T04:43:35;13.10;99.90
34574;DHT22;20809;49.594;8.734;2023-08-30T04:46:38;13.10;99.90
34574;DHT22;20809;49.594;8.734;2023-08-30T04:49:40;13.10;99.90
34574;DHT22;20809;49.594;8.734;2023-08-30T04:52:43;13.10;99.90
34574;DHT22;20809;49.594;8.734;2023-08-30T04:55:45;13.10;99.90
34574;DHT22;20809;49.594;8.734;2023-08-30T04:58:47;13.20;99.90
34574;DHT22;20809;49.594;8.734;2023-08-30T05:01:51;13.20;99.90
34574;DHT22;20809;49.594;8.734;2023-08-30T05:04:52;13.20;99.90
34574;DHT22;20809;49.594;8.734;2023-08-30T05:07:53;13.30;99.90
34574;DHT22;20809;49.594;8.734;2023-08-30T05:10:54;13.40;99.90
34574;DHT22;20809;49.594;8.734;2023-08-30T05:13:55;13.40;99.90
34574;DHT22;20809;49.594;8.734;2023-08-30T05:16:56;13.50;99.90
34574;DHT22;20809;49.594;8.734;2023-08-30T05:19:57;13.50;99.90
34574;DHT22;20809;49.594;8.734;2023-08-30T05:22:58;13.40;99.90
34574;DHT22;20809;49.594;8.734;2023-08-30T05:25:59;13.40;99.90
34574;DHT22;20809;49.594;8.734;2023-08-30T05:28:59;13.50;99.90
34574;DHT22;20809;49.594;8.734;2023-08-30T05:32:00;13.70;99.90
34574;DHT22;20809;49.594;8.734;2023-08-30T05:35:01;13.70;99.90
34574;DHT22;20809;49.594;8.734;2023-08-30T05:38:02;13.70;99.90
34574;DHT22;20809;49.594;8.734;2023-08-30T05:41:02;13.90;99.90
34574;DHT22;20809;49.594;8.734;2023-08-30T05:44:03;14.00;99.90
34574;DHT22;20809;49.594;8.734;2023-08-30T05:47:04;14.10;99.90
34574;DHT22;20809;49.594;8.734;2023-08-30T05:50:05;14.30;99.90
34574;DHT22;20809;49.594;8.734;2023-08-30T05:53:06;14.40;99.90
34574;DHT22;20809;49.594;8.734;2023-08-30T05:56:07;14.40;99.90
34574;DHT22;20809;49.594;8.734;2023-08-30T05:59:08;14.50;99.90
34574;DHT22;20809;49.594;8.734;2023-08-30T06:02:09;14.50;99.90
34574;DHT22;20809;49.594;8.734;2023-08-30T06:05:11;14.50;99.90
34574;DHT22;20809;49.594;8.734;2023-08-30T06:08:11;14.50;99.90
34574;DHT22;20809;49.594;8.734;2023-08-30T06:11:12;14.60;99.90
34574;DHT22;20809;49.594;8.734;2023-08-30T06:14:14;14.70;99.90
34574;DHT22;20809;49.594;8.734;2023-08-30T06:17:15;14.90;99.90
34574;DHT22;20809;49.594;8.734;2023-08-30T06:20:15;15.10;99.90
34574;DHT22;20809;49.594;8.734;2023-08-30T06:23:18;15.10;99.90
34574;DHT22;20809;49.594;8.734;2023-08-30T06:26:20;15.20;99.90
34574;DHT22;20809;49.594;8.734;2023-08-30T06:29:20;15.40;99.90
34574;DHT22;20809;49.594;8.734;2023-08-30T06:32:21;15.50;99.90
34574;DHT22;20809;49.594;8.734;2023-08-30T06:35:23;15.60;99.90
34574;DHT22;20809;49.594;8.734;2023-08-30T06:38:26;15.80;99.90
34574;DHT22;20809;49.594;8.734;2023-08-30T06:41:27;16.20;99.90
34574;DHT22;20809;49.594;8.734;2023-08-30T06:44:28;17.00;99.90
34574;DHT22;20809;49.594;8.734;2023-08-30T06:47:34;17.90;99.90
34574;DHT22;20809;49.594;8.734;2023-08-30T06:50:35;18.70;99.90
34574;DHT22;20809;49.594;8.734;2023-08-30T06:53:35;19.10;99.90
34574;DHT22;20809;49.594;8.734;2023-08-30T06:56:36;19.20;99.90
34574;DHT22;20809;49.594;8.734;2023-08-30T06:59:37;19.10;99.90
34574;DHT22;20809;49.594;8.734;2023-08-30T07:02:38;19.10;99.90
34574;DHT22;20809;49.594;8.734;2023-08-30T07:05:38;19.40;99.90
34574;DHT22;20809;49.594;8.734;2023-08-30T07:08:39;19.40;99.90
34574;DHT22;20809;49.594;8.734;2023-08-30T07:11:42;19.20;99.90
34574;DHT22;20809;49.594;8.734;2023-08-30T07:14:44;19.00;99.90
34574;DHT22;20809;49.594;8.734;2023-08-30T07:17:45;18.90;99.90
34574;DHT22;20809;49.594;8.734;2023-08-30T07:20:46;19.00;99.90
34574;DHT22;20809;49.594;8.734;2023-08-30T07:23:47;19.00;99.90
34574;DHT22;20809;49.594;8.734;2023-08-30T07:26:47;19.20;99.90
34574;DHT22;20809;49.594;8.734;2023-08-30T07:29:48;19.30;99.90
34574;DHT22;20809;49.594;8.734;2023-08-30T07:32:49;19.40;99.90
34574;DHT22;20809;49.594;8.734;2023-08-30T07:35:53;19.50;99.90
34574;DHT22;20809;49.594;8.734;2023-08-30T07:38:54;19.50;99.90
34574;DHT22;20809;49.594;8.734;2023-08-30T07:41:54;19.50;99.90
34574;DHT22;20809;49.594;8.734;2023-08-30T07:44:55;19.60;99.90
34574;DHT22;20809;49.594;8.734;2023-08-30T07:47:58;19.70;99.90
34574;DHT22;20809;49.594;8.734;2023-08-30T07:50:59;19.70;99.90
34574;DHT22;20809;49.594;8.734;2023-08-30T07:54:00;19.90;99.90
34574;DHT22;20809;49.594;8.734;2023-08-30T07:57:00;20.10;99.90
34574;DHT22;20809;49.594;8.734;2023-08-30T08:00:01;20.30;99.90
34574;DHT22;20809;49.594;8.734;2023-08-30T08:03:03;20.50;99.90
34574;DHT22;20809;49.594;8.734;2023-08-30T08:06:03;20.70;99.90
34574;DHT22;20809;49.594;8.734;2023-08-30T08:09:05;20.90;99.90
34574;DHT22;20809;49.594;8.734;2023-08-30T08:12:06;21.00;99.90
34574;DHT22;20809;49.594;8.734;2023-08-30T08:15:07;21.00;99.90
34574;DHT22;20809;49.594;8.734;2023-08-30T08:18:08;21.00;99.90
34574;DHT22;20809;49.594;8.734;2023-08-30T08:21:08;20.90;99.90
34574;DHT22;20809;49.594;8.734;2023-08-30T08:24:09;20.80;99.90
34574;DHT22;20809;49.594;8.734;2023-08-30T08:27:10;20.80;99.90
34574;DHT22;20809;49.594;8.734;2023-08-30T08:30:12;21.10;99.90
34574;DHT22;20809;49.594;8.734;2023-08-30T08:33:12;21.20;99.90
34574;DHT22;20809;49.594;8.734;2023-08-30T08:36:13;21.30;99.90
34574;DHT22;20809;49.594;8.734;2023-08-30T08:39:14;21.40;99.90
34574;DHT22;20809;49.594;8.734;2023-08-30T08:42:16;21.60;99.90
34574;DHT22;20809;49.594;8.734;2023-08-30T08:45:17;21.80;99.90
34574;DHT22;20809;49.594;8.734;2023-08-30T08:48:20;22.00;99.90
34574;DHT22;20809;49.594;8.734;2023-08-30T08:51:22;22.10;99.90
34574;DHT22;20809;49.594;8.734;2023-08-30T08:54:25;21.90;99.90
34574;DHT22;20809;49.594;8.734;2023-08-30T08:57:28;21.80;99.90
34574;DHT22;20809;49.594;8.734;2023-08-30T09:00:31;21.50;99.90
34574;DHT22;20809;49.594;8.734;2023-08-30T09:03:33;21.50;99.90
34574;DHT22;20809;49.594;8.734;2023-08-30T09:06:35;21.40;99.90
34574;DHT22;20809;49.594;8.734;2023-08-30T09:09:37;21.50;99.90
34574;DHT22;20809;49.594;8.734;2023-08-30T09:12:37;21.70;99.90
34574;DHT22;20809;49.594;8.734;2023-08-30T09:15:38;21.80;99.90
34574;DHT22;20809;49.594;8.734;2023-08-30T09:18:40;21.80;99.90
34574;DHT22;20809;49.594;8.734;2023-08-30T09:21:53;21.80;99.90
34574;DHT22;20809;49.594;8.734;2023-08-30T09:24:54;21.50;99.90
34574;DHT22;20809;49.594;8.734;2023-08-30T09:27:58;21.50;99.90
34574;DHT22;20809;49.594;8.734;2023-08-30T09:31:01;21.70;99.90
34574;DHT22;20809;49.594;8.734;2023-08-30T09:34:04;21.60;99.90
34574;DHT22;20809;49.594;8.734;2023-08-30T09:37:05;21.40;99.90
34574;DHT22;20809;49.594;8.734;2023-08-30T09:40:06;21.50;99.90
34574;DHT22;20809;49.594;8.734;2023-08-30T09:43:07;21.50;99.90
34574;DHT22;20809;49.594;8.734;2023-08-30T09:46:07;21.90;99.90
34574;DHT22;20809;49.594;8.734;2023-08-30T09:49:08;22.10;99.90
34574;DHT22;20809;49.594;8.734;2023-08-30T09:52:10;22.20;99.90
34574;DHT22;20809;49.594;8.734;2023-08-30T09:55:11;22.20;99.90
34574;DHT22;20809;49.594;8.734;2023-08-30T09:58:12;22.40;99.90
34574;DHT22;20809;49.594;8.734;2023-08-30T10:01:13;22.70;99.90
34574;DHT22;20809;49.594;8.734;2023-08-30T10:04:15;22.80;99.90
34574;DHT22;20809;49.594;8.734;2023-08-30T10:07:18;22.80;99.90
34574;DHT22;20809;49.594;8.734;2023-08-30T10:10:20;22.80;99.90
34574;DHT22;20809;49.594;8.734;2023-08-30T10:13:22;22.90;99.90
34574;DHT22;20809;49.594;8.734;2023-08-30T10:16:27;23.10;99.90
34574;DHT22;20809;49.594;8.734;2023-08-30T10:19:31;23.20;99.90
34574;DHT22;20809;49.594;8.734;2023-08-30T10:22:34;23.40;99.90
34574;DHT22;20809;49.594;8.734;2023-08-30T10:25:35;23.60;99.90
34574;DHT22;20809;49.594;8.734;2023-08-30T10:28:39;23.50;99.90
34574;DHT22;20809;49.594;8.734;2023-08-30T10:31:40;23.00;99.90
34574;DHT22;20809;49.594;8.734;2023-08-30T10:34:48;22.70;99.90
34574;DHT22;20809;49.594;8.734;2023-08-30T10:37:58;22.50;99.90
34574;DHT22;20809;49.594;8.734;2023-08-30T10:41:08;22.20;99.90
34574;DHT22;20809;49.594;8.734;2023-08-30T10:44:13;22.30;99.90
34574;DHT22;20809;49.594;8.734;2023-08-30T10:47:19;22.00;99.90
34574;DHT22;20809;49.594;8.734;2023-08-30T10:50:30;22.00;99.90
34574;DHT22;20809;49.594;8.734;2023-08-30T10:53:31;22.10;99.90
34574;DHT22;20809;49.594;8.734;2023-08-30T10:56:32;22.20;99.90
34574;DHT22;20809;49.594;8.734;2023-08-30T10:59:35;22.40;99.90
34574;DHT22;20809;49.594;8.734;2023-08-30T11:02:37;22.70;99.90
34574;DHT22;20809;49.594;8.734;2023-08-30T11:05:40;22.70;99.90
34574;DHT22;20809;49.594;8.734;2023-08-30T11:08:41;22.70;99.90
34574;DHT22;20809;49.594;8.734;2023-08-30T11:11:42;22.80;99.90
34574;DHT22;20809;49.594;8.734;2023-08-30T11:14:52;22.70;99.90
34574;DHT22;20809;49.594;8.734;2023-08-30T11:18:02;22.90;99.90
34574;DHT22;20809;49.594;8.734;2023-08-30T11:21:03;23.00;99.90
34574;DHT22;20809;49.594;8.734;2023-08-30T11:24:04;23.10;99.90
34574;DHT22;20809;49.594;8.734;2023-08-30T11:27:05;23.10;99.90
34574;DHT22;20809;49.594;8.734;2023-08-30T11:30:08;23.10;99.90
34574;DHT22;20809;49.594;8.734;2023-08-30T11:33:09;23.20;99.90
34574;DHT22;20809;49.594;8.734;2023-08-30T11:36:10;23.40;99.90
34574;DHT22;20809;49.594;8.734;2023-08-30T11:39:11;23.50;99.90
34574;DHT22;20809;49.594;8.734;2023-08-30T11:42:11;23.50;99.90
34574;DHT22;20809;49.594;8.734;2023-08-30T11:45:14;23.50;99.90
34574;DHT22;20809;49.594;8.734;2023-08-30T11:48:17;23.60;99.90
34574;DHT22;20809;49.594;8.734;2023-08-30T11:51:19;23.60;99.90
34574;DHT22;20809;49.594;8.734;2023-08-30T11:54:20;23.50;99.90
34574;DHT22;20809;49.594;8.734;2023-08-30T11:57:21;23.50;99.90
34574;DHT22;20809;49.594;8.734;2023-08-30T12:00:22;23.40;99.90
34574;DHT22;20809;49.594;8.734;2023-08-30T12:03:23;23.60;99.90
34574;DHT22;20809;49.594;8.734;2023-08-30T12:06:23;23.70;99.90
34574;DHT22;20809;49.594;8.734;2023-08-30T12:09:30;23.70;99.90
34574;DHT22;20809;49.594;8.734;2023-08-30T12:12:31;23.60;99.90
34574;DHT22;20809;49.594;8.734;2023-08-30T12:15:31;23.80;99.90
34574;DHT22;20809;49.594;8.734;2023-08-30T12:18:34;24.00;99.90
34574;DHT22;20809;49.594;8.734;2023-08-30T12:21:44;24.10;99.90
34574;DHT22;20809;49.594;8.734;2023-08-30T12:24:47;24.40;99.90
34574;DHT22;20809;49.594;8.734;2023-08-30T12:27:48;24.40;99.90
34574;DHT22;20809;49.594;8.734;2023-08-30T12:30:49;24.60;99.90
34574;DHT22;20809;49.594;8.734;2023-08-30T12:33:49;24.90;99.90
34574;DHT22;20809;49.594;8.734;2023-08-30T12:36:50;25.20;99.90
34574;DHT22;20809;49.594;8.734;2023-08-30T12:39:50;25.10;99.90
34574;DHT22;20809;49.594;8.734;2023-08-30T12:42:51;25.40;99.90
34574;DHT22;20809;49.594;8.734;2023-08-30T12:45:54;25.70;99.90
34574;DHT22;20809;49.594;8.734;2023-08-30T12:48:56;25.90;99.90
34574;DHT22;20809;49.594;8.734;2023-08-30T12:51:56;25.60;99.90
34574;DHT22;20809;49.594;8.734;2023-08-30T12:54:57;25.80;99.90
34574;DHT22;20809;49.594;8.734;2023-08-30T12:57:58;25.60;99.90
34574;DHT22;20809;49.594;8.734;2023-08-30T13:00:58;25.00;99.90
34574;DHT22;20809;49.594;8.734;2023-08-30T13:03:59;24.70;99.90
34574;DHT22;20809;49.594;8.734;2023-08-30T13:07:00;24.40;99.90
34574;DHT22;20809;49.594;8.734;2023-08-30T13:10:00;24.00;99.90
34574;DHT22;20809;49.594;8.734;2023-08-30T13:13:01;23.40;99.90
34574;DHT22;20809;49.594;8.734;2023-08-30T13:16:02;22.80;99.90
34574;DHT22;20809;49.594;8.734;2023-08-30T13:19:03;22.10;99.90
34574;DHT22;20809;49.594;8.734;2023-08-30T13:22:04;21.40;99.90
34574;DHT22;20809;49.594;8.734;2023-08-30T13:25:05;21.10;99.90
34574;DHT22;20809;49.594;8.734;2023-08-30T13:28:06;20.30;99.90
34574;DHT22;20809;49.594;8.734;2023-08-30T13:31:08;19.40;99.90
34574;DHT22;20809;49.594;8.734;2023-08-30T13:34:08;18.60;99.90
34574;DHT22;20809;49.594;8.734;2023-08-30T13:37:09;18.10;99.90
34574;DHT22;20809;49.594;8.734;2023-08-30T13:40:10;17.80;99.90
34574;DHT22;20809;49.594;8.734;2023-08-30T13:43:12;17.70;99.90
34574;DHT22;20809;49.594;8.734;2023-08-30T13:46:12;17.70;99.90
34574;DHT22;20809;49.594;8.734;2023-08-30T13:49:13;18.10;99.90
34574;DHT22;20809;49.594;8.734;2023-08-30T13:52:14;18.30;99.90
34574;DHT22;20809;49.594;8.734;2023-08-30T13:55:15;18.80;99.90
34574;DHT22;20809;49.594;8.734;2023-08-30T13:58:16;19.70;99.90
34574;DHT22;20809;49.594;8.734;2023-08-30T14:01:17;20.10;99.90
34574;DHT22;20809;49.594;8.734;2023-08-30T14:04:21;19.80;99.90
34574;DHT22;20809;49.594;8.734;2023-08-30T14:07:22;19.40;99.90
34574;DHT22;20809;49.594;8.734;2023-08-30T14:10:22;19.60;99.90
34574;DHT22;20809;49.594;8.734;2023-08-30T14:13:23;19.70;99.90
34574;DHT22;20809;49.594;8.734;2023-08-30T14:16:24;19.80;99.90
34574;DHT22;20809;49.594;8.734;2023-08-30T14:19:25;20.40;99.90
34574;DHT22;20809;49.594;8.734;2023-08-30T14:22:26;20.60;99.90
34574;DHT22;20809;49.594;8.734;2023-08-30T14:25:26;20.70;99.90
34574;DHT22;20809;49.594;8.734;2023-08-30T14:28:27;20.80;99.90
34574;DHT22;20809;49.594;8.734;2023-08-30T14:31:28;20.80;99.90
34574;DHT22;20809;49.594;8.734;2023-08-30T14:34:30;21.00;99.90
34574;DHT22;20809;49.594;8.734;2023-08-30T14:37:31;21.40;99.90
34574;DHT22;20809;49.594;8.734;2023-08-30T14:40:32;21.70;99.90
34574;DHT22;20809;49.594;8.734;2023-08-30T14:43:33;21.80;99.90
34574;DHT22;20809;49.594;8.734;2023-08-30T14:46:34;21.80;99.90
34574;DHT22;20809;49.594;8.734;2023-08-30T14:49:35;21.50;99.90
34574;DHT22;20809;49.594;8.734;2023-08-30T14:52:35;21.20;99.90
34574;DHT22;20809;49.594;8.734;2023-08-30T14:55:36;21.20;99.90
34574;DHT22;20809;49.594;8.734;2023-08-30T14:58:37;21.00;99.90
34574;DHT22;20809;49.594;8.734;2023-08-30T15:01:37;21.10;99.90
34574;DHT22;20809;49.594;8.734;2023-08-30T15:04:39;20.80;99.90
34574;DHT22;20809;49.594;8.734;2023-08-30T15:07:40;20.80;99.90
34574;DHT22;20809;49.594;8.734;2023-08-30T15:10:40;21.10;99.90
34574;DHT22;20809;49.594;8.734;2023-08-30T15:13:41;21.40;99.90
34574;DHT22;20809;49.594;8.734;2023-08-30T15:16:42;21.50;99.90
34574;DHT22;20809;49.594;8.734;2023-08-30T15:19:42;21.60;99.90
34574;DHT22;20809;49.594;8.734;2023-08-30T15:22:43;21.70;99.90
34574;DHT22;20809;49.594;8.734;2023-08-30T15:25:45;21.60;99.90
34574;DHT22;20809;49.594;8.734;2023-08-30T15:28:47;21.50;99.90
34574;DHT22;20809;49.594;8.734;2023-08-30T15:31:48;21.70;99.90
34574;DHT22;20809;49.594;8.734;2023-08-30T15:34:53;22.00;99.90
34574;DHT22;20809;49.594;8.734;2023-08-30T15:37:54;22.30;99.90
34574;DHT22;20809;49.594;8.734;2023-08-30T15:40:55;22.30;99.90
34574;DHT22;20809;49.594;8.734;2023-08-30T15:43:56;22.50;99.90
34574;DHT22;20809;49.594;8.734;2023-08-30T15:46:57;22.30;99.90
34574;DHT22;20809;49.594;8.734;2023-08-30T15:49:57;22.00;99.90
34574;DHT22;20809;49.594;8.734;2023-08-30T15:52:58;22.00;99.90
34574;DHT22;20809;49.594;8.734;2023-08-30T15:55:59;22.20;99.90
34574;DHT22;20809;49.594;8.734;2023-08-30T15:58:59;22.20;99.90
34574;DHT22;20809;49.594;8.734;2023-08-30T16:02:00;21.90;99.90
34574;DHT22;20809;49.594;8.734;2023-08-30T16:05:01;21.50;99.90
34574;DHT22;20809;49.594;8.734;2023-08-30T16:08:02;21.20;99.90
34574;DHT22;20809;49.594;8.734;2023-08-30T16:11:02;20.90;99.90
34574;DHT22;20809;49.594;8.734;2023-08-30T16:14:04;20.60;99.90
34574;DHT22;20809;49.594;8.734;2023-08-30T16:17:05;20.50;99.90
34574;DHT22;20809;49.594;8.734;2023-08-30T16:20:07;20.50;99.90
34574;DHT22;20809;49.594;8.734;2023-08-30T16:23:08;20.50;99.90
34574;DHT22;20809;49.594;8.734;2023-08-30T16:26:08;20.30;99.90
34574;DHT22;20809;49.594;8.734;2023-08-30T16:29:09;20.20;99.90
34574;DHT22;20809;49.594;8.734;2023-08-30T16:32:12;20.10;99.90
34574;DHT22;20809;49.594;8.734;2023-08-30T16:35:12;20.00;99.90
34574;DHT22;20809;49.594;8.734;2023-08-30T16:38:13;20.00;99.90
34574;DHT22;20809;49.594;8.734;2023-08-30T16:41:14;20.00;99.90
34574;DHT22;20809;49.594;8.734;2023-08-30T16:44:15;20.00;99.90
34574;DHT22;20809;49.594;8.734;2023-08-30T16:47:15;20.00;99.90
34574;DHT22;20809;49.594;8.734;2023-08-30T16:50:16;20.00;99.90
34574;DHT22;20809;49.594;8.734;2023-08-30T16:53:17;20.00;99.90
34574;DHT22;20809;49.594;8.734;2023-08-30T16:56:18;19.90;99.90
34574;DHT22;20809;49.594;8.734;2023-08-30T16:59:18;19.90;99.90
34574;DHT22;20809;49.594;8.734;2023-08-30T17:02:19;19.80;99.90
34574;DHT22;20809;49.594;8.734;2023-08-30T17:05:20;19.80;99.90
34574;DHT22;20809;49.594;8.734;2023-08-30T17:08:21;19.70;99.90
34574;DHT22;20809;49.594;8.734;2023-08-30T17:11:21;19.60;99.90
34574;DHT22;20809;49.594;8.734;2023-08-30T17:14:22;19.60;99.90
34574;DHT22;20809;49.594;8.734;2023-08-30T17:17:22;19.50;99.90
34574;DHT22;20809;49.594;8.734;2023-08-30T17:20:23;19.50;99.90
34574;DHT22;20809;49.594;8.734;2023-08-30T17:23:24;19.40;99.90
34574;DHT22;20809;49.594;8.734;2023-08-30T17:26:25;19.40;99.90
34574;DHT22;20809;49.594;8.734;2023-08-30T17:29:25;19.40;99.90
34574;DHT22;20809;49.594;8.734;2023-08-30T17:32:26;19.30;99.90
34574;DHT22;20809;49.594;8.734;2023-08-30T17:35:27;19.20;99.90
34574;DHT22;20809;49.594;8.734;2023-08-30T17:38:29;19.10;99.90
34574;DHT22;20809;49.594;8.734;2023-08-30T17:41:30;19.10;99.90
34574;DHT22;20809;49.594;8.734;2023-08-30T17:44:31;19.00;99.90
34574;DHT22;20809;49.594;8.734;2023-08-30T17:47:32;18.90;99.90
34574;DHT22;20809;49.594;8.734;2023-08-30T17:50:32;18.90;99.90
34574;DHT22;20809;49.594;8.734;2023-08-30T17:53:34;18.90;99.90
34574;DHT22;20809;49.594;8.734;2023-08-30T17:56:35;18.90;99.90
34574;DHT22;20809;49.594;8.734;2023-08-30T17:59:36;18.80;99.90
34574;DHT22;20809;49.594;8.734;2023-08-30T18:02:37;18.70;99.90
34574;DHT22;20809;49.594;8.734;2023-08-30T18:05:39;18.70;99.90
34574;DHT22;20809;49.594;8.734;2023-08-30T18:08:44;18.60;99.90
34574;DHT22;20809;49.594;8.734;2023-08-30T18:11:50;18.50;99.90
34574;DHT22;20809;49.594;8.734;2023-08-30T18:14:52;18.60;99.90
34574;DHT22;20809;49.594;8.734;2023-08-30T18:17:53;18.50;99.90
34574;DHT22;20809;49.594;8.734;2023-08-30T18:20:54;18.40;99.90
34574;DHT22;20809;49.594;8.734;2023-08-30T18:27:12;18.40;99.90
34574;DHT22;20809;49.594;8.734;2023-08-30T18:30:14;18.30;99.90
34574;DHT22;20809;49.594;8.734;2023-08-30T18:33:15;18.00;99.90
34574;DHT22;20809;49.594;8.734;2023-08-30T18:36:16;16.70;99.90
34574;DHT22;20809;49.594;8.734;2023-08-30T18:39:28;15.80;99.90
34574;DHT22;20809;49.594;8.734;2023-08-30T18:42:30;15.20;99.90
34574;DHT22;20809;49.594;8.734;2023-08-30T18:45:33;14.80;99.90
34574;DHT22;20809;49.594;8.734;2023-08-30T18:48:33;14.60;99.90
34574;DHT22;20809;49.594;8.734;2023-08-30T18:51:34;14.40;99.90
34574;DHT22;20809;49.594;8.734;2023-08-30T18:54:35;14.30;99.90
34574;DHT22;20809;49.594;8.734;2023-08-30T18:57:39;14.10;99.90
34574;DHT22;20809;49.594;8.734;2023-08-30T19:00:41;14.10;99.90
34574;DHT22;20809;49.594;8.734;2023-08-30T19:03:42;14.10;99.90
34574;DHT22;20809;49.594;8.734;2023-08-30T19:06:42;14.10;99.90
34574;DHT22;20809;49.594;8.734;2023-08-30T19:09:43;14.10;99.90
34574;DHT22;20809;49.594;8.734;2023-08-30T19:12:44;14.10;99.90
34574;DHT22;20809;49.594;8.734;2023-08-30T19:15:45;14.10;99.90